Sorang, Kazakhstan
Current Conditions -  °F | °C
As of 3:30 PM on Wednesday 22 Oct 2014 (Local Time) from UAKK Reporting Station
Clear Clear  
Wind Chill: 42°   Ceiling: Unl
Heat Index: 46°   Visibility: 6mi
Dew Point: 25°   Wind: 9mph
Humidity: 43%   Direction: 240°WSW
Pressure: 30"   Gusts: NA
Location:  49.78°N, 72.85°E
Report Text: UAKK 220930Z 24004MPS CAVOK 08/M04 Q1016 R23/0///70 NOSIG RMKQFE715/0954
Loading
Personal Weather Stations






























Interactive Weather Map
Tropical Storm Tracking
New forecast layout! Learn more

10-Day Weather Forecast

Advertisements
Track Severe Weather on mobile